sensor_id;sensor_type;location;lat;lon;timestamp;pressure;altitude;pressure_sealevel;temperature;humidity
29197;BME280;62796;42.654;23.316;2023-08-21T00:00:05;94907.25;;;26.43;38.48
29197;BME280;62796;42.654;23.316;2023-08-21T00:02:31;94911.00;;;26.45;38.24
29197;BME280;62796;42.654;23.316;2023-08-21T00:04:56;94902.88;;;26.42;38.11
29197;BME280;62796;42.654;23.316;2023-08-21T00:07:22;94907.56;;;26.47;38.06
29197;BME280;62796;42.654;23.316;2023-08-21T00:09:48;94903.34;;;26.55;37.87
29197;BME280;62796;42.654;23.316;2023-08-21T00:12:13;94902.66;;;26.47;38.08
29197;BME280;62796;42.654;23.316;2023-08-21T00:14:39;94904.13;;;26.31;38.53
29197;BME280;62796;42.654;23.316;2023-08-21T00:17:04;94901.09;;;26.29;39.05
29197;BME280;62796;42.654;23.316;2023-08-21T00:19:30;94901.56;;;26.43;38.17
29197;BME280;62796;42.654;23.316;2023-08-21T00:21:55;94900.81;;;26.42;37.75
29197;BME280;62796;42.654;23.316;2023-08-21T00:24:21;94907.44;;;26.20;38.38
29197;BME280;62796;42.654;23.316;2023-08-21T00:26:46;94888.56;;;26.15;38.53
29197;BME280;62796;42.654;23.316;2023-08-21T00:29:11;94897.69;;;26.30;39.04
29197;BME280;62796;42.654;23.316;2023-08-21T00:31:37;94902.28;;;26.26;38.97
29197;BME280;62796;42.654;23.316;2023-08-21T00:34:02;94903.69;;;26.34;38.98
29197;BME280;62796;42.654;23.316;2023-08-21T00:36:28;94903.25;;;26.21;39.34
29197;BME280;62796;42.654;23.316;2023-08-21T00:38:53;94909.41;;;26.10;40.02
29197;BME280;62796;42.654;23.316;2023-08-21T00:41:18;94903.19;;;25.79;40.60
29197;BME280;62796;42.654;23.316;2023-08-21T00:43:44;94909.53;;;25.87;40.83
29197;BME280;62796;42.654;23.316;2023-08-21T00:46:10;94904.56;;;25.70;41.24
29197;BME280;62796;42.654;23.316;2023-08-21T00:48:36;94916.16;;;25.90;40.67
29197;BME280;62796;42.654;23.316;2023-08-21T00:51:02;94909.25;;;25.75;40.89
29197;BME280;62796;42.654;23.316;2023-08-21T00:53:28;94912.03;;;25.58;41.14
29197;BME280;62796;42.654;23.316;2023-08-21T00:55:53;94907.91;;;25.44;41.07
29197;BME280;62796;42.654;23.316;2023-08-21T00:58:19;94920.69;;;25.60;40.80
29197;BME280;62796;42.654;23.316;2023-08-21T01:00:45;94917.84;;;25.60;40.19
29197;BME280;62796;42.654;23.316;2023-08-21T01:03:12;94911.09;;;25.56;40.29
29197;BME280;62796;42.654;23.316;2023-08-21T01:05:38;94921.56;;;25.38;40.87
29197;BME280;62796;42.654;23.316;2023-08-21T01:08:08;94915.31;;;25.40;40.23
29197;BME280;62796;42.654;23.316;2023-08-21T01:10:39;94924.81;;;25.27;40.82
29197;BME280;62796;42.654;23.316;2023-08-21T01:13:11;94913.69;;;25.21;41.33
29197;BME280;62796;42.654;23.316;2023-08-21T01:15:42;94907.88;;;25.12;41.52
29197;BME280;62796;42.654;23.316;2023-08-21T01:18:10;94915.31;;;25.00;42.30
29197;BME280;62796;42.654;23.316;2023-08-21T01:20:36;94917.00;;;25.03;42.19
29197;BME280;62796;42.654;23.316;2023-08-21T01:23:05;94912.59;;;25.09;41.88
29197;BME280;62796;42.654;23.316;2023-08-21T01:25:31;94917.59;;;24.94;41.87
29197;BME280;62796;42.654;23.316;2023-08-21T01:27:57;94911.94;;;24.86;42.56
29197;BME280;62796;42.654;23.316;2023-08-21T01:30:22;94924.22;;;24.81;42.13
29197;BME280;62796;42.654;23.316;2023-08-21T01:35:20;94924.75;;;24.79;42.48
29197;BME280;62796;42.654;23.316;2023-08-21T01:37:46;94910.63;;;24.87;42.46
29197;BME280;62796;42.654;23.316;2023-08-21T01:40:11;94916.44;;;24.97;42.78
29197;BME280;62796;42.654;23.316;2023-08-21T01:42:36;94925.53;;;24.88;42.99
29197;BME280;62796;42.654;23.316;2023-08-21T01:45:02;94915.69;;;24.89;42.83
29197;BME280;62796;42.654;23.316;2023-08-21T01:47:27;94924.41;;;24.75;43.40
29197;BME280;62796;42.654;23.316;2023-08-21T01:49:53;94931.56;;;24.76;43.17
29197;BME280;62796;42.654;23.316;2023-08-21T01:52:19;94925.94;;;24.84;43.17
29197;BME280;62796;42.654;23.316;2023-08-21T01:54:44;94920.09;;;24.59;43.67
29197;BME280;62796;42.654;23.316;2023-08-21T01:57:13;94916.69;;;24.68;43.59
29197;BME280;62796;42.654;23.316;2023-08-21T01:59:38;94908.34;;;24.78;43.44
29197;BME280;62796;42.654;23.316;2023-08-21T02:02:04;94916.50;;;24.66;43.99
29197;BME280;62796;42.654;23.316;2023-08-21T02:04:29;94919.34;;;24.66;44.05
29197;BME280;62796;42.654;23.316;2023-08-21T02:06:54;94915.94;;;24.60;44.17
29197;BME280;62796;42.654;23.316;2023-08-21T02:09:20;94917.28;;;24.44;44.72
29197;BME280;62796;42.654;23.316;2023-08-21T02:11:45;94912.38;;;24.37;44.84
29197;BME280;62796;42.654;23.316;2023-08-21T02:14:10;94914.63;;;24.46;45.05
29197;BME280;62796;42.654;23.316;2023-08-21T02:16:36;94914.28;;;24.42;44.98
29197;BME280;62796;42.654;23.316;2023-08-21T02:19:01;94909.03;;;24.31;45.46
29197;BME280;62796;42.654;23.316;2023-08-21T02:21:27;94908.81;;;24.14;45.60
29197;BME280;62796;42.654;23.316;2023-08-21T02:23:52;94923.75;;;24.22;45.54
29197;BME280;62796;42.654;23.316;2023-08-21T02:26:17;94922.97;;;24.14;45.78
29197;BME280;62796;42.654;23.316;2023-08-21T02:28:45;94904.47;;;23.98;45.96
29197;BME280;62796;42.654;23.316;2023-08-21T02:31:11;94910.50;;;24.02;46.24
29197;BME280;62796;42.654;23.316;2023-08-21T02:33:36;94915.41;;;24.09;46.38
29197;BME280;62796;42.654;23.316;2023-08-21T02:36:02;94903.31;;;24.08;46.20
29197;BME280;62796;42.654;23.316;2023-08-21T02:38:28;94911.84;;;24.16;46.40
29197;BME280;62796;42.654;23.316;2023-08-21T02:40:54;94913.91;;;24.00;47.26
29197;BME280;62796;42.654;23.316;2023-08-21T02:43:19;94914.06;;;23.80;47.73
29197;BME280;62796;42.654;23.316;2023-08-21T02:45:45;94905.97;;;23.76;47.59
29197;BME280;62796;42.654;23.316;2023-08-21T02:48:10;94913.09;;;23.69;47.36
29197;BME280;62796;42.654;23.316;2023-08-21T02:50:35;94908.75;;;23.53;47.89
29197;BME280;62796;42.654;23.316;2023-08-21T02:53:01;94924.41;;;23.54;47.98
29197;BME280;62796;42.654;23.316;2023-08-21T02:55:26;94889.63;;;23.31;48.38
29197;BME280;62796;42.654;23.316;2023-08-21T02:57:52;94916.44;;;23.45;48.44
29197;BME280;62796;42.654;23.316;2023-08-21T03:00:17;94910.00;;;23.37;47.85
29197;BME280;62796;42.654;23.316;2023-08-21T03:02:42;94922.41;;;23.27;48.00
29197;BME280;62796;42.654;23.316;2023-08-21T03:05:09;94921.63;;;23.19;48.42
29197;BME280;62796;42.654;23.316;2023-08-21T03:07:35;94923.50;;;23.16;48.46
29197;BME280;62796;42.654;23.316;2023-08-21T03:10:00;94924.22;;;23.09;48.84
29197;BME280;62796;42.654;23.316;2023-08-21T03:12:27;94921.91;;;23.00;49.20
29197;BME280;62796;42.654;23.316;2023-08-21T03:14:53;94923.09;;;23.04;48.99
29197;BME280;62796;42.654;23.316;2023-08-21T03:17:18;94929.69;;;23.07;49.15
29197;BME280;62796;42.654;23.316;2023-08-21T03:19:44;94933.69;;;23.19;48.69
29197;BME280;62796;42.654;23.316;2023-08-21T03:22:09;94926.56;;;23.33;48.49
29197;BME280;62796;42.654;23.316;2023-08-21T03:24:35;94943.22;;;23.44;48.55
29197;BME280;62796;42.654;23.316;2023-08-21T03:27:01;94927.19;;;23.39;48.65
29197;BME280;62796;42.654;23.316;2023-08-21T03:29:26;94938.88;;;23.43;48.29
29197;BME280;62796;42.654;23.316;2023-08-21T03:31:53;94932.97;;;23.26;48.55
29197;BME280;62796;42.654;23.316;2023-08-21T03:34:19;94933.66;;;23.11;49.08
29197;BME280;62796;42.654;23.316;2023-08-21T03:36:45;94929.28;;;23.03;49.00
29197;BME280;62796;42.654;23.316;2023-08-21T03:39:10;94943.41;;;23.03;49.13
29197;BME280;62796;42.654;23.316;2023-08-21T03:41:36;94932.44;;;22.92;49.63
29197;BME280;62796;42.654;23.316;2023-08-21T03:44:01;94940.44;;;23.08;49.19
29197;BME280;62796;42.654;23.316;2023-08-21T03:46:27;94938.97;;;23.23;48.94
29197;BME280;62796;42.654;23.316;2023-08-21T03:48:52;94925.94;;;23.12;48.82
29197;BME280;62796;42.654;23.316;2023-08-21T03:51:17;94937.44;;;23.14;49.21
29197;BME280;62796;42.654;23.316;2023-08-21T03:53:43;94937.81;;;23.18;49.10
29197;BME280;62796;42.654;23.316;2023-08-21T03:56:08;94934.25;;;23.18;49.28
29197;BME280;62796;42.654;23.316;2023-08-21T03:58:34;94934.84;;;23.31;48.83
29197;BME280;62796;42.654;23.316;2023-08-21T04:01:00;94930.69;;;23.17;49.28
29197;BME280;62796;42.654;23.316;2023-08-21T04:03:25;94936.69;;;23.13;49.64
29197;BME280;62796;42.654;23.316;2023-08-21T04:05:53;94941.03;;;23.22;49.47
29197;BME280;62796;42.654;23.316;2023-08-21T04:08:18;94943.78;;;23.43;48.94
29197;BME280;62796;42.654;23.316;2023-08-21T04:10:44;94944.28;;;23.34;48.97
29197;BME280;62796;42.654;23.316;2023-08-21T04:13:09;94941.81;;;23.30;49.32
29197;BME280;62796;42.654;23.316;2023-08-21T04:15:35;94947.69;;;23.32;48.97
29197;BME280;62796;42.654;23.316;2023-08-21T04:18:03;94951.03;;;23.23;49.51
29197;BME280;62796;42.654;23.316;2023-08-21T04:20:30;94944.03;;;23.17;50.12
29197;BME280;62796;42.654;23.316;2023-08-21T04:22:56;94955.19;;;23.22;50.04
29197;BME280;62796;42.654;23.316;2023-08-21T04:25:24;94945.03;;;23.34;49.47
29197;BME280;62796;42.654;23.316;2023-08-21T04:27:50;94959.63;;;23.46;49.41
29197;BME280;62796;42.654;23.316;2023-08-21T04:30:15;94952.28;;;23.50;49.44
29197;BME280;62796;42.654;23.316;2023-08-21T04:32:40;94964.59;;;23.68;47.73
29197;BME280;62796;42.654;23.316;2023-08-21T04:35:06;94961.22;;;23.85;47.16
29197;BME280;62796;42.654;23.316;2023-08-21T04:37:34;94969.16;;;23.94;46.93
29197;BME280;62796;42.654;23.316;2023-08-21T04:39:59;94960.66;;;24.01;46.57
29197;BME280;62796;42.654;23.316;2023-08-21T04:42:24;94964.81;;;24.08;46.21
29197;BME280;62796;42.654;23.316;2023-08-21T04:44:50;94963.34;;;24.14;46.48
29197;BME280;62796;42.654;23.316;2023-08-21T04:47:23;94969.72;;;24.07;46.52
29197;BME280;62796;42.654;23.316;2023-08-21T04:49:49;94969.72;;;24.07;46.30
29197;BME280;62796;42.654;23.316;2023-08-21T04:52:15;94956.38;;;24.23;45.85
29197;BME280;62796;42.654;23.316;2023-08-21T04:54:40;94959.38;;;24.40;45.33
29197;BME280;62796;42.654;23.316;2023-08-21T04:57:05;94961.28;;;24.30;45.78
29197;BME280;62796;42.654;23.316;2023-08-21T04:59:31;94973.56;;;24.25;45.87
29197;BME280;62796;42.654;23.316;2023-08-21T05:01:56;94973.56;;;24.25;46.18
29197;BME280;62796;42.654;23.316;2023-08-21T05:04:22;94983.34;;;24.47;46.06
29197;BME280;62796;42.654;23.316;2023-08-21T05:06:47;94943.34;;;24.35;45.66
29197;BME280;62796;42.654;23.316;2023-08-21T05:09:13;94981.28;;;24.55;45.76
29197;BME280;62796;42.654;23.316;2023-08-21T05:11:38;94978.44;;;24.47;45.49
29197;BME280;62796;42.654;23.316;2023-08-21T05:14:03;94985.06;;;24.42;45.36
29197;BME280;62796;42.654;23.316;2023-08-21T05:16:29;94989.94;;;24.49;45.94
29197;BME280;62796;42.654;23.316;2023-08-21T05:18:54;94991.66;;;24.60;45.81
29197;BME280;62796;42.654;23.316;2023-08-21T05:21:20;95001.09;;;24.70;45.70
29197;BME280;62796;42.654;23.316;2023-08-21T05:23:45;94985.81;;;24.81;45.83
29197;BME280;62796;42.654;23.316;2023-08-21T05:26:10;94994.69;;;24.85;45.55
29197;BME280;62796;42.654;23.316;2023-08-21T05:28:36;94995.03;;;24.89;45.70
29197;BME280;62796;42.654;23.316;2023-08-21T05:31:01;94992.00;;;25.02;45.61
29197;BME280;62796;42.654;23.316;2023-08-21T05:33:26;94999.19;;;25.03;45.45
29197;BME280;62796;42.654;23.316;2023-08-21T05:35:52;94988.19;;;25.07;45.51
29197;BME280;62796;42.654;23.316;2023-08-21T05:38:18;94993.84;;;25.14;45.09
29197;BME280;62796;42.654;23.316;2023-08-21T05:40:44;94986.78;;;25.30;44.80
29197;BME280;62796;42.654;23.316;2023-08-21T05:43:09;94979.16;;;25.56;43.01
29197;BME280;62796;42.654;23.316;2023-08-21T05:45:35;94980.78;;;25.74;42.71
29197;BME280;62796;42.654;23.316;2023-08-21T05:48:00;94979.47;;;26.00;41.61
29197;BME280;62796;42.654;23.316;2023-08-21T05:50:25;94968.47;;;26.04;41.65
29197;BME280;62796;42.654;23.316;2023-08-21T05:52:51;94975.56;;;26.20;41.67
29197;BME280;62796;42.654;23.316;2023-08-21T05:55:17;94974.94;;;26.29;40.92
29197;BME280;62796;42.654;23.316;2023-08-21T05:57:43;94980.16;;;26.40;40.88
29197;BME280;62796;42.654;23.316;2023-08-21T06:00:09;94969.75;;;26.60;40.17
29197;BME280;62796;42.654;23.316;2023-08-21T06:02:34;94977.88;;;26.63;40.01
29197;BME280;62796;42.654;23.316;2023-08-21T06:05:00;94970.19;;;26.73;40.36
29197;BME280;62796;42.654;23.316;2023-08-21T06:07:25;94979.59;;;26.83;39.33
29197;BME280;62796;42.654;23.316;2023-08-21T06:09:50;94978.38;;;26.94;39.33
29197;BME280;62796;42.654;23.316;2023-08-21T06:12:18;94983.41;;;27.20;39.25
29197;BME280;62796;42.654;23.316;2023-08-21T06:14:43;94984.56;;;27.34;38.93
29197;BME280;62796;42.654;23.316;2023-08-21T06:17:09;94990.16;;;27.59;38.34
29197;BME280;62796;42.654;23.316;2023-08-21T06:19:34;94987.97;;;27.67;38.00
29197;BME280;62796;42.654;23.316;2023-08-21T06:22:00;94983.91;;;27.87;37.76
29197;BME280;62796;42.654;23.316;2023-08-21T06:24:25;94983.91;;;28.05;37.23
29197;BME280;62796;42.654;23.316;2023-08-21T06:26:51;94994.50;;;28.31;36.51
29197;BME280;62796;42.654;23.316;2023-08-21T06:29:17;94980.50;;;28.52;35.63
29197;BME280;62796;42.654;23.316;2023-08-21T06:31:45;94995.28;;;28.77;35.05
29197;BME280;62796;42.654;23.316;2023-08-21T06:34:10;95000.88;;;28.85;35.00
29197;BME280;62796;42.654;23.316;2023-08-21T06:36:36;95003.69;;;28.75;35.30
29197;BME280;62796;42.654;23.316;2023-08-21T06:39:01;94990.50;;;28.80;34.54
29197;BME280;62796;42.654;23.316;2023-08-21T06:41:28;94998.94;;;29.06;33.84
29197;BME280;62796;42.654;23.316;2023-08-21T06:43:54;95002.28;;;29.22;34.01
29197;BME280;62796;42.654;23.316;2023-08-21T06:46:19;94992.56;;;29.44;33.35
29197;BME280;62796;42.654;23.316;2023-08-21T06:48:45;94993.31;;;29.45;33.17
29197;BME280;62796;42.654;23.316;2023-08-21T06:51:11;94999.16;;;29.56;32.75
29197;BME280;62796;42.654;23.316;2023-08-21T06:53:37;95005.59;;;29.76;32.39
29197;BME280;62796;42.654;23.316;2023-08-21T06:56:02;95000.50;;;29.84;32.12
29197;BME280;62796;42.654;23.316;2023-08-21T06:58:28;94995.06;;;30.07;32.43
29197;BME280;62796;42.654;23.316;2023-08-21T07:00:54;94998.59;;;30.37;31.91
29197;BME280;62796;42.654;23.316;2023-08-21T07:03:20;94994.09;;;30.43;31.14
29197;BME280;62796;42.654;23.316;2023-08-21T07:05:59;94981.16;;;30.33;31.36
29197;BME280;62796;42.654;23.316;2023-08-21T07:08:25;94995.53;;;30.54;31.39
29197;BME280;62796;42.654;23.316;2023-08-21T07:10:51;95000.88;;;30.69;31.25
29197;BME280;62796;42.654;23.316;2023-08-21T07:13:17;95000.97;;;30.81;30.91
29197;BME280;62796;42.654;23.316;2023-08-21T07:15:43;94999.84;;;30.95;30.80
29197;BME280;62796;42.654;23.316;2023-08-21T07:18:08;94996.56;;;30.89;30.95
29197;BME280;62796;42.654;23.316;2023-08-21T07:20:34;94994.97;;;31.07;30.47
29197;BME280;62796;42.654;23.316;2023-08-21T07:23:00;94997.38;;;31.32;30.12
29197;BME280;62796;42.654;23.316;2023-08-21T07:25:26;94996.66;;;31.43;29.59
29197;BME280;62796;42.654;23.316;2023-08-21T07:27:52;94994.03;;;31.57;29.28
29197;BME280;62796;42.654;23.316;2023-08-21T07:30:20;94985.75;;;31.72;28.84
29197;BME280;62796;42.654;23.316;2023-08-21T07:32:47;94994.50;;;32.07;28.29
29197;BME280;62796;42.654;23.316;2023-08-21T07:35:14;94985.94;;;32.30;27.94
29197;BME280;62796;42.654;23.316;2023-08-21T07:37:39;94994.31;;;32.50;27.51
29197;BME280;62796;42.654;23.316;2023-08-21T07:40:06;94991.63;;;32.75;27.24
29197;BME280;62796;42.654;23.316;2023-08-21T07:42:32;94995.34;;;32.89;27.52
29197;BME280;62796;42.654;23.316;2023-08-21T07:44:57;94985.84;;;32.98;27.42
29197;BME280;62796;42.654;23.316;2023-08-21T07:47:23;94986.75;;;33.12;26.59
29197;BME280;62796;42.654;23.316;2023-08-21T07:49:48;94968.03;;;33.11;26.38
29197;BME280;62796;42.654;23.316;2023-08-21T07:52:14;94987.06;;;33.42;25.83
29197;BME280;62796;42.654;23.316;2023-08-21T07:54:41;94989.03;;;33.51;25.79
29197;BME280;62796;42.654;23.316;2023-08-21T07:57:06;94982.88;;;33.68;25.05
29197;BME280;62796;42.654;23.316;2023-08-21T07:59:32;94990.47;;;34.00;24.70
29197;BME280;62796;42.654;23.316;2023-08-21T08:01:57;94986.09;;;33.99;24.69
29197;BME280;62796;42.654;23.316;2023-08-21T08:04:23;94986.22;;;34.01;24.54
29197;BME280;62796;42.654;23.316;2023-08-21T08:06:48;94982.50;;;34.24;24.39
29197;BME280;62796;42.654;23.316;2023-08-21T08:09:13;94978.59;;;34.44;25.05
29197;BME280;62796;42.654;23.316;2023-08-21T08:11:39;94977.16;;;34.71;23.53
29197;BME280;62796;42.654;23.316;2023-08-21T08:14:04;94978.91;;;34.76;23.72
29197;BME280;62796;42.654;23.316;2023-08-21T08:16:30;94984.84;;;34.80;23.46
29197;BME280;62796;42.654;23.316;2023-08-21T08:18:55;94983.72;;;34.85;23.29
29197;BME280;62796;42.654;23.316;2023-08-21T08:21:21;94975.50;;;34.93;23.40
29197;BME280;62796;42.654;23.316;2023-08-21T08:23:46;94977.22;;;35.12;23.04
29197;BME280;62796;42.654;23.316;2023-08-21T08:26:11;94977.66;;;35.33;22.69
29197;BME280;62796;42.654;23.316;2023-08-21T08:28:37;94974.19;;;35.50;21.87
29197;BME280;62796;42.654;23.316;2023-08-21T08:31:02;94969.53;;;35.30;22.91
29197;BME280;62796;42.654;23.316;2023-08-21T08:33:28;94960.13;;;35.57;22.65
29197;BME280;62796;42.654;23.316;2023-08-21T08:35:53;94963.16;;;35.74;22.83
29197;BME280;62796;42.654;23.316;2023-08-21T08:38:19;94959.47;;;35.44;22.24
29197;BME280;62796;42.654;23.316;2023-08-21T08:40:46;94962.25;;;34.74;23.58
29197;BME280;62796;42.654;23.316;2023-08-21T08:43:12;94953.72;;;34.10;24.41
29197;BME280;62796;42.654;23.316;2023-08-21T08:45:40;94964.28;;;34.19;24.22
29197;BME280;62796;42.654;23.316;2023-08-21T08:48:06;94955.47;;;34.29;24.16
29197;BME280;62796;42.654;23.316;2023-08-21T08:50:32;94948.63;;;34.75;23.64
29197;BME280;62796;42.654;23.316;2023-08-21T08:52:58;94947.34;;;34.78;22.90
29197;BME280;62796;42.654;23.316;2023-08-21T08:55:24;94941.59;;;35.05;22.59
29197;BME280;62796;42.654;23.316;2023-08-21T08:57:51;94944.38;;;35.03;22.82
29197;BME280;62796;42.654;23.316;2023-08-21T09:00:16;94941.47;;;34.89;22.70
29197;BME280;62796;42.654;23.316;2023-08-21T09:02:42;94947.34;;;35.05;22.70
29197;BME280;62796;42.654;23.316;2023-08-21T09:05:08;94940.97;;;35.20;22.74
29197;BME280;62796;42.654;23.316;2023-08-21T09:07:34;94944.88;;;34.86;23.40
29197;BME280;62796;42.654;23.316;2023-08-21T09:10:00;94941.94;;;34.97;23.20
29197;BME280;62796;42.654;23.316;2023-08-21T09:12:25;94939.66;;;34.69;23.97
29197;BME280;62796;42.654;23.316;2023-08-21T09:14:51;94946.69;;;34.66;24.02
29197;BME280;62796;42.654;23.316;2023-08-21T09:17:17;94943.53;;;35.14;23.66
29197;BME280;62796;42.654;23.316;2023-08-21T09:19:43;94932.25;;;35.61;21.53
29197;BME280;62796;42.654;23.316;2023-08-21T09:22:15;94929.44;;;35.77;21.42
29197;BME280;62796;42.654;23.316;2023-08-21T09:25:00;94937.06;;;36.15;21.04
29197;BME280;62796;42.654;23.316;2023-08-21T09:27:25;94935.34;;;36.39;20.90
29197;BME280;62796;42.654;23.316;2023-08-21T09:29:51;94934.53;;;36.52;20.38
29197;BME280;62796;42.654;23.316;2023-08-21T09:32:16;94925.47;;;36.44;20.80
29197;BME280;62796;42.654;23.316;2023-08-21T09:34:42;94931.34;;;36.46;20.64
29197;BME280;62796;42.654;23.316;2023-08-21T09:37:08;94921.47;;;36.36;19.66
29197;BME280;62796;42.654;23.316;2023-08-21T09:39:36;94921.00;;;36.41;19.29
29197;BME280;62796;42.654;23.316;2023-08-21T09:42:11;94931.19;;;36.74;19.35
29197;BME280;62796;42.654;23.316;2023-08-21T09:44:39;94925.63;;;36.95;19.57
29197;BME280;62796;42.654;23.316;2023-08-21T09:47:09;94910.22;;;37.22;19.40
29197;BME280;62796;42.654;23.316;2023-08-21T09:49:35;94902.00;;;37.32;19.18
29197;BME280;62796;42.654;23.316;2023-08-21T09:52:03;94918.91;;;37.55;18.51
29197;BME280;62796;42.654;23.316;2023-08-21T09:54:30;94916.25;;;37.61;18.65
29197;BME280;62796;42.654;23.316;2023-08-21T09:56:57;94912.13;;;37.66;19.09
29197;BME280;62796;42.654;23.316;2023-08-21T09:59:23;94906.03;;;37.58;19.19
29197;BME280;62796;42.654;23.316;2023-08-21T10:01:50;94907.41;;;36.91;19.93
29197;BME280;62796;42.654;23.316;2023-08-21T10:04:17;94904.56;;;37.24;19.14
29197;BME280;62796;42.654;23.316;2023-08-21T10:06:44;94899.34;;;37.54;18.82
29197;BME280;62796;42.654;23.316;2023-08-21T10:09:10;94886.88;;;37.34;18.36
29197;BME280;62796;42.654;23.316;2023-08-21T10:11:35;94900.63;;;37.00;19.12
29197;BME280;62796;42.654;23.316;2023-08-21T10:14:01;94896.13;;;36.97;19.37
29197;BME280;62796;42.654;23.316;2023-08-21T10:16:27;94878.38;;;37.20;19.13
29197;BME280;62796;42.654;23.316;2023-08-21T10:18:52;94886.97;;;37.51;18.77
29197;BME280;62796;42.654;23.316;2023-08-21T10:21:22;94891.16;;;37.84;18.65
29197;BME280;62796;42.654;23.316;2023-08-21T10:23:54;94883.25;;;38.02;18.03
29197;BME280;62796;42.654;23.316;2023-08-21T10:26:21;94882.25;;;38.13;17.83
29197;BME280;62796;42.654;23.316;2023-08-21T10:28:51;94879.28;;;38.11;18.24
29197;BME280;62796;42.654;23.316;2023-08-21T10:31:38;94880.59;;;38.08;17.80
29197;BME280;62796;42.654;23.316;2023-08-21T10:34:14;94877.69;;;37.55;18.42
29197;BME280;62796;42.654;23.316;2023-08-21T10:39:26;94860.59;;;38.14;18.08
29197;BME280;62796;42.654;23.316;2023-08-21T10:42:10;94863.69;;;38.38;17.71
29197;BME280;62796;42.654;23.316;2023-08-21T10:44:52;94862.81;;;38.72;17.36
29197;BME280;62796;42.654;23.316;2023-08-21T10:49:56;94860.44;;;39.06;16.15
29197;BME280;62796;42.654;23.316;2023-08-21T10:52:27;94860.75;;;39.36;16.18
29197;BME280;62796;42.654;23.316;2023-08-21T10:54:54;94854.44;;;39.42;16.26
29197;BME280;62796;42.654;23.316;2023-08-21T10:57:21;94838.78;;;39.29;16.19
29197;BME280;62796;42.654;23.316;2023-08-21T10:59:55;94858.25;;;39.26;16.01
29197;BME280;62796;42.654;23.316;2023-08-21T11:02:21;94835.09;;;39.26;16.07
29197;BME280;62796;42.654;23.316;2023-08-21T11:04:48;94839.16;;;38.78;16.30
29197;BME280;62796;42.654;23.316;2023-08-21T11:07:14;94851.91;;;38.51;16.69
29197;BME280;62796;42.654;23.316;2023-08-21T11:09:40;94841.94;;;37.99;16.68
29197;BME280;62796;42.654;23.316;2023-08-21T11:12:10;94850.00;;;38.03;16.20
29197;BME280;62796;42.654;23.316;2023-08-21T11:14:37;94837.59;;;38.18;16.63
29197;BME280;62796;42.654;23.316;2023-08-21T11:17:03;94829.25;;;38.26;16.32
29197;BME280;62796;42.654;23.316;2023-08-21T11:19:33;94827.50;;;38.19;16.50
29197;BME280;62796;42.654;23.316;2023-08-21T11:21:59;94829.88;;;37.69;16.25
29197;BME280;62796;42.654;23.316;2023-08-21T11:24:48;94826.47;;;37.40;17.56
29197;BME280;62796;42.654;23.316;2023-08-21T11:27:15;94826.41;;;37.20;17.62
29197;BME280;62796;42.654;23.316;2023-08-21T11:29:42;94821.44;;;37.05;18.08
29197;BME280;62796;42.654;23.316;2023-08-21T11:32:10;94819.78;;;37.00;18.00
29197;BME280;62796;42.654;23.316;2023-08-21T11:34:35;94823.06;;;37.10;17.61
29197;BME280;62796;42.654;23.316;2023-08-21T11:37:01;94821.06;;;37.30;17.49
29197;BME280;62796;42.654;23.316;2023-08-21T11:39:27;94822.94;;;37.41;17.66
29197;BME280;62796;42.654;23.316;2023-08-21T11:41:58;94825.44;;;37.66;17.30
29197;BME280;62796;42.654;23.316;2023-08-21T11:44:24;94821.78;;;37.84;17.35
29197;BME280;62796;42.654;23.316;2023-08-21T11:46:51;94811.91;;;38.08;17.07
29197;BME280;62796;42.654;23.316;2023-08-21T11:49:18;94811.66;;;38.59;16.67
29197;BME280;62796;42.654;23.316;2023-08-21T11:51:45;94814.31;;;38.93;15.98
29197;BME280;62796;42.654;23.316;2023-08-21T11:54:11;94814.63;;;39.01;16.08
29197;BME280;62796;42.654;23.316;2023-08-21T11:56:38;94803.06;;;39.22;15.30
29197;BME280;62796;42.654;23.316;2023-08-21T11:59:04;94800.91;;;39.23;15.52
29197;BME280;62796;42.654;23.316;2023-08-21T12:01:32;94804.28;;;39.37;15.32
29197;BME280;62796;42.654;23.316;2023-08-21T12:03:59;94804.16;;;39.33;14.92
29197;BME280;62796;42.654;23.316;2023-08-21T12:06:25;94797.03;;;39.16;14.89
29197;BME280;62796;42.654;23.316;2023-08-21T12:08:51;94797.09;;;38.97;14.65
29197;BME280;62796;42.654;23.316;2023-08-21T12:11:16;94798.50;;;38.96;15.44
29197;BME280;62796;42.654;23.316;2023-08-21T12:13:42;94797.25;;;39.01;14.94
29197;BME280;62796;42.654;23.316;2023-08-21T12:16:08;94788.22;;;38.71;14.96
29197;BME280;62796;42.654;23.316;2023-08-21T12:18:33;94790.28;;;38.68;15.35
29197;BME280;62796;42.654;23.316;2023-08-21T12:20:58;94788.34;;;38.95;14.73
29197;BME280;62796;42.654;23.316;2023-08-21T12:23:24;94787.03;;;39.41;14.89
29197;BME280;62796;42.654;23.316;2023-08-21T12:25:49;94783.88;;;39.33;14.33
29197;BME280;62796;42.654;23.316;2023-08-21T12:28:15;94778.41;;;39.21;14.55
29197;BME280;62796;42.654;23.316;2023-08-21T12:30:40;94785.28;;;39.32;14.22
29197;BME280;62796;42.654;23.316;2023-08-21T12:33:06;94790.81;;;39.24;14.09
29197;BME280;62796;42.654;23.316;2023-08-21T12:35:31;94786.44;;;39.23;14.17
29197;BME280;62796;42.654;23.316;2023-08-21T12:37:58;94794.22;;;38.97;14.70
29197;BME280;62796;42.654;23.316;2023-08-21T12:40:23;94782.22;;;39.06;14.99
29197;BME280;62796;42.654;23.316;2023-08-21T12:42:49;94777.50;;;38.75;14.73
29197;BME280;62796;42.654;23.316;2023-08-21T12:45:15;94770.75;;;39.10;14.38
29197;BME280;62796;42.654;23.316;2023-08-21T12:47:41;94776.53;;;39.30;14.14
29197;BME280;62796;42.654;23.316;2023-08-21T12:50:07;94769.50;;;39.37;14.41
29197;BME280;62796;42.654;23.316;2023-08-21T12:52:32;94767.69;;;39.26;14.11